sensor_id;sensor_type;location;lat;lon;timestamp;P1;durP1;ratioP1;P2;durP2;ratioP2
12519;SDS011;6325;49.540;8.364;2024-03-02T00:01:29;4.93;;;4.50;;
12519;SDS011;6325;49.540;8.364;2024-03-02T00:03:57;5.28;;;4.88;;
12519;SDS011;6325;49.540;8.364;2024-03-02T00:06:25;5.20;;;4.80;;
12519;SDS011;6325;49.540;8.364;2024-03-02T00:08:51;5.22;;;4.78;;
12519;SDS011;6325;49.540;8.364;2024-03-02T00:11:23;5.47;;;4.97;;
12519;SDS011;6325;49.540;8.364;2024-03-02T00:13:52;5.18;;;4.70;;
12519;SDS011;6325;49.540;8.364;2024-03-02T00:16:19;5.10;;;4.70;;
12519;SDS011;6325;49.540;8.364;2024-03-02T00:18:46;5.78;;;5.28;;
12519;SDS011;6325;49.540;8.364;2024-03-02T00:21:13;5.63;;;5.13;;
12519;SDS011;6325;49.540;8.364;2024-03-02T00:23:43;6.10;;;5.50;;
12519;SDS011;6325;49.540;8.364;2024-03-02T00:26:10;5.82;;;5.22;;
12519;SDS011;6325;49.540;8.364;2024-03-02T00:28:38;6.20;;;5.70;;
12519;SDS011;6325;49.540;8.364;2024-03-02T00:31:09;5.70;;;5.13;;
12519;SDS011;6325;49.540;8.364;2024-03-02T00:33:38;6.32;;;5.72;;
12519;SDS011;6325;49.540;8.364;2024-03-02T00:36:07;6.33;;;5.73;;
12519;SDS011;6325;49.540;8.364;2024-03-02T00:38:39;6.00;;;5.45;;
12519;SDS011;6325;49.540;8.364;2024-03-02T00:41:16;6.43;;;5.82;;
12519;SDS011;6325;49.540;8.364;2024-03-02T00:43:47;6.63;;;5.93;;
12519;SDS011;6325;49.540;8.364;2024-03-02T00:46:21;7.07;;;6.38;;
12519;SDS011;6325;49.540;8.364;2024-03-02T00:48:53;7.38;;;6.65;;
12519;SDS011;6325;49.540;8.364;2024-03-02T00:51:22;7.90;;;7.10;;
12519;SDS011;6325;49.540;8.364;2024-03-02T00:53:52;7.90;;;7.03;;
12519;SDS011;6325;49.540;8.364;2024-03-02T00:56:21;7.88;;;7.03;;
12519;SDS011;6325;49.540;8.364;2024-03-02T00:58:48;7.18;;;6.47;;
12519;SDS011;6325;49.540;8.364;2024-03-02T01:01:16;7.30;;;6.60;;
12519;SDS011;6325;49.540;8.364;2024-03-02T01:03:43;6.65;;;6.05;;
12519;SDS011;6325;49.540;8.364;2024-03-02T01:06:10;7.22;;;6.53;;
12519;SDS011;6325;49.540;8.364;2024-03-02T01:08:37;7.10;;;6.40;;
12519;SDS011;6325;49.540;8.364;2024-03-02T01:11:06;7.40;;;6.60;;
12519;SDS011;6325;49.540;8.364;2024-03-02T01:13:32;7.38;;;6.68;;
12519;SDS011;6325;49.540;8.364;2024-03-02T01:16:00;7.53;;;6.82;;
12519;SDS011;6325;49.540;8.364;2024-03-02T01:18:27;7.03;;;6.40;;
12519;SDS011;6325;49.540;8.364;2024-03-02T01:20:54;6.95;;;6.25;;
12519;SDS011;6325;49.540;8.364;2024-03-02T01:23:21;7.65;;;6.95;;
12519;SDS011;6325;49.540;8.364;2024-03-02T01:25:48;7.28;;;6.57;;
12519;SDS011;6325;49.540;8.364;2024-03-02T01:28:16;7.38;;;6.60;;
12519;SDS011;6325;49.540;8.364;2024-03-02T01:30:43;7.30;;;6.60;;
12519;SDS011;6325;49.540;8.364;2024-03-02T01:33:12;7.43;;;6.72;;
12519;SDS011;6325;49.540;8.364;2024-03-02T01:35:39;7.35;;;6.65;;
12519;SDS011;6325;49.540;8.364;2024-03-02T01:38:06;7.50;;;6.70;;
12519;SDS011;6325;49.540;8.364;2024-03-02T01:40:33;7.10;;;6.40;;
12519;SDS011;6325;49.540;8.364;2024-03-02T01:43:00;7.00;;;6.30;;
12519;SDS011;6325;49.540;8.364;2024-03-02T01:45:29;7.00;;;6.40;;
12519;SDS011;6325;49.540;8.364;2024-03-02T01:47:55;7.38;;;6.68;;
12519;SDS011;6325;49.540;8.364;2024-03-02T01:50:26;7.00;;;6.30;;
12519;SDS011;6325;49.540;8.364;2024-03-02T01:52:53;6.78;;;6.18;;
12519;SDS011;6325;49.540;8.364;2024-03-02T01:55:21;7.20;;;6.50;;
12519;SDS011;6325;49.540;8.364;2024-03-02T01:57:47;6.83;;;6.17;;
12519;SDS011;6325;49.540;8.364;2024-03-02T02:00:15;7.40;;;6.60;;
12519;SDS011;6325;49.540;8.364;2024-03-02T02:02:44;7.25;;;6.55;;
12519;SDS011;6325;49.540;8.364;2024-03-02T02:05:11;7.68;;;6.93;;
12519;SDS011;6325;49.540;8.364;2024-03-02T02:07:39;7.45;;;6.63;;
12519;SDS011;6325;49.540;8.364;2024-03-02T02:10:06;7.65;;;6.93;;
12519;SDS011;6325;49.540;8.364;2024-03-02T02:12:34;7.18;;;6.47;;
12519;SDS011;6325;49.540;8.364;2024-03-02T02:15:01;7.50;;;6.70;;
12519;SDS011;6325;49.540;8.364;2024-03-02T02:17:28;7.68;;;6.72;;
12519;SDS011;6325;49.540;8.364;2024-03-02T02:19:56;7.70;;;6.90;;
12519;SDS011;6325;49.540;8.364;2024-03-02T02:22:24;7.18;;;6.47;;
12519;SDS011;6325;49.540;8.364;2024-03-02T02:24:51;8.27;;;6.95;;
12519;SDS011;6325;49.540;8.364;2024-03-02T02:27:18;7.65;;;6.93;;
12519;SDS011;6325;49.540;8.364;2024-03-02T02:29:45;7.67;;;6.97;;
12519;SDS011;6325;49.540;8.364;2024-03-02T02:32:11;6.80;;;6.20;;
12519;SDS011;6325;49.540;8.364;2024-03-02T02:34:38;7.15;;;6.45;;
12519;SDS011;6325;49.540;8.364;2024-03-02T02:37:05;8.45;;;6.60;;
12519;SDS011;6325;49.540;8.364;2024-03-02T02:39:33;6.90;;;6.30;;
12519;SDS011;6325;49.540;8.364;2024-03-02T02:42:00;7.45;;;6.75;;
12519;SDS011;6325;49.540;8.364;2024-03-02T02:44:27;9.15;;;6.80;;
12519;SDS011;6325;49.540;8.364;2024-03-02T02:46:54;7.68;;;6.80;;
12519;SDS011;6325;49.540;8.364;2024-03-02T02:49:21;7.53;;;6.78;;
12519;SDS011;6325;49.540;8.364;2024-03-02T02:51:48;7.40;;;6.60;;
12519;SDS011;6325;49.540;8.364;2024-03-02T02:54:14;8.00;;;7.20;;
12519;SDS011;6325;49.540;8.364;2024-03-02T02:56:43;7.47;;;6.78;;
12519;SDS011;6325;49.540;8.364;2024-03-02T02:59:10;7.77;;;6.97;;
12519;SDS011;6325;49.540;8.364;2024-03-02T03:01:36;7.35;;;6.65;;
12519;SDS011;6325;49.540;8.364;2024-03-02T03:04:03;7.68;;;6.95;;
12519;SDS011;6325;49.540;8.364;2024-03-02T03:06:30;8.60;;;7.18;;
12519;SDS011;6325;49.540;8.364;2024-03-02T03:08:57;7.23;;;6.53;;
12519;SDS011;6325;49.540;8.364;2024-03-02T03:11:23;7.72;;;7.00;;
12519;SDS011;6325;49.540;8.364;2024-03-02T03:13:52;7.70;;;6.90;;
12519;SDS011;6325;49.540;8.364;2024-03-02T03:16:20;7.38;;;6.68;;
12519;SDS011;6325;49.540;8.364;2024-03-02T03:18:46;7.75;;;6.95;;
12519;SDS011;6325;49.540;8.364;2024-03-02T03:21:15;7.25;;;6.55;;
12519;SDS011;6325;49.540;8.364;2024-03-02T03:23:42;7.30;;;6.60;;
12519;SDS011;6325;49.540;8.364;2024-03-02T03:26:09;7.13;;;6.43;;
12519;SDS011;6325;49.540;8.364;2024-03-02T03:28:35;7.35;;;6.65;;
12519;SDS011;6325;49.540;8.364;2024-03-02T03:31:03;6.90;;;6.20;;
12519;SDS011;6325;49.540;8.364;2024-03-02T03:33:30;6.77;;;6.07;;
12519;SDS011;6325;49.540;8.364;2024-03-02T03:35:56;7.30;;;6.60;;
12519;SDS011;6325;49.540;8.364;2024-03-02T03:38:23;7.05;;;6.40;;
12519;SDS011;6325;49.540;8.364;2024-03-02T03:40:50;7.60;;;6.82;;
12519;SDS011;6325;49.540;8.364;2024-03-02T03:43:17;6.73;;;6.07;;
12519;SDS011;6325;49.540;8.364;2024-03-02T03:45:43;7.47;;;6.78;;
12519;SDS011;6325;49.540;8.364;2024-03-02T03:48:12;6.65;;;5.95;;
12519;SDS011;6325;49.540;8.364;2024-03-02T03:50:39;7.63;;;6.82;;
12519;SDS011;6325;49.540;8.364;2024-03-02T03:53:06;7.50;;;6.78;;
12519;SDS011;6325;49.540;8.364;2024-03-02T03:55:34;7.80;;;6.50;;
12519;SDS011;6325;49.540;8.364;2024-03-02T03:58:01;6.53;;;5.80;;
12519;SDS011;6325;49.540;8.364;2024-03-02T04:00:28;7.72;;;6.50;;
12519;SDS011;6325;49.540;8.364;2024-03-02T04:02:55;6.65;;;6.00;;
12519;SDS011;6325;49.540;8.364;2024-03-02T04:05:23;6.60;;;6.00;;
12519;SDS011;6325;49.540;8.364;2024-03-02T04:07:49;6.97;;;6.28;;
12519;SDS011;6325;49.540;8.364;2024-03-02T04:10:16;6.88;;;6.20;;
12519;SDS011;6325;49.540;8.364;2024-03-02T04:12:43;6.45;;;5.85;;
12519;SDS011;6325;49.540;8.364;2024-03-02T04:15:10;6.70;;;6.10;;
12519;SDS011;6325;49.540;8.364;2024-03-02T04:17:36;7.25;;;6.55;;
12519;SDS011;6325;49.540;8.364;2024-03-02T04:20:04;6.47;;;5.88;;
12519;SDS011;6325;49.540;8.364;2024-03-02T04:22:33;6.88;;;6.13;;
12519;SDS011;6325;49.540;8.364;2024-03-02T04:25:01;7.10;;;6.40;;
12519;SDS011;6325;49.540;8.364;2024-03-02T04:27:29;6.47;;;5.88;;
12519;SDS011;6325;49.540;8.364;2024-03-02T04:29:56;6.95;;;6.30;;
12519;SDS011;6325;49.540;8.364;2024-03-02T04:32:23;7.07;;;6.32;;
12519;SDS011;6325;49.540;8.364;2024-03-02T04:34:50;7.10;;;6.40;;
12519;SDS011;6325;49.540;8.364;2024-03-02T04:37:16;6.87;;;6.27;;
12519;SDS011;6325;49.540;8.364;2024-03-02T04:39:44;6.63;;;6.03;;
12519;SDS011;6325;49.540;8.364;2024-03-02T04:42:11;7.35;;;6.65;;
12519;SDS011;6325;49.540;8.364;2024-03-02T04:44:38;6.90;;;6.30;;
12519;SDS011;6325;49.540;8.364;2024-03-02T04:47:05;7.45;;;6.35;;
12519;SDS011;6325;49.540;8.364;2024-03-02T04:49:31;7.00;;;6.30;;
12519;SDS011;6325;49.540;8.364;2024-03-02T04:51:58;6.97;;;6.28;;
12519;SDS011;6325;49.540;8.364;2024-03-02T04:54:25;7.45;;;6.75;;
12519;SDS011;6325;49.540;8.364;2024-03-02T04:56:53;6.80;;;6.18;;
12519;SDS011;6325;49.540;8.364;2024-03-02T04:59:20;6.90;;;6.20;;
12519;SDS011;6325;49.540;8.364;2024-03-02T05:01:47;6.60;;;6.00;;
12519;SDS011;6325;49.540;8.364;2024-03-02T05:04:13;6.97;;;6.28;;
12519;SDS011;6325;49.540;8.364;2024-03-02T05:06:40;6.72;;;6.13;;
12519;SDS011;6325;49.540;8.364;2024-03-02T05:09:07;6.97;;;6.28;;
12519;SDS011;6325;49.540;8.364;2024-03-02T05:11:34;7.20;;;6.50;;
12519;SDS011;6325;49.540;8.364;2024-03-02T05:14:36;6.88;;;6.20;;
12519;SDS011;6325;49.540;8.364;2024-03-02T05:17:03;6.97;;;6.28;;
12519;SDS011;6325;49.540;8.364;2024-03-02T05:19:30;7.22;;;6.53;;
12519;SDS011;6325;49.540;8.364;2024-03-02T05:21:57;7.60;;;6.85;;
12519;SDS011;6325;49.540;8.364;2024-03-02T05:24:23;7.10;;;6.40;;
12519;SDS011;6325;49.540;8.364;2024-03-02T05:26:52;7.82;;;7.07;;
12519;SDS011;6325;49.540;8.364;2024-03-02T05:29:19;7.20;;;6.50;;
12519;SDS011;6325;49.540;8.364;2024-03-02T05:31:47;6.63;;;5.93;;
12519;SDS011;6325;49.540;8.364;2024-03-02T05:34:13;6.90;;;6.20;;
12519;SDS011;6325;49.540;8.364;2024-03-02T05:36:40;6.47;;;5.88;;
12519;SDS011;6325;49.540;8.364;2024-03-02T05:39:07;6.73;;;6.13;;
12519;SDS011;6325;49.540;8.364;2024-03-02T05:41:35;6.68;;;6.07;;
12519;SDS011;6325;49.540;8.364;2024-03-02T05:44:03;6.43;;;5.82;;
12519;SDS011;6325;49.540;8.364;2024-03-02T05:46:30;6.70;;;6.10;;
12519;SDS011;6325;49.540;8.364;2024-03-02T05:48:58;6.15;;;5.65;;
12519;SDS011;6325;49.540;8.364;2024-03-02T05:51:25;6.07;;;5.50;;
12519;SDS011;6325;49.540;8.364;2024-03-02T05:53:52;6.00;;;5.50;;
12519;SDS011;6325;49.540;8.364;2024-03-02T05:56:18;6.80;;;6.20;;
12519;SDS011;6325;49.540;8.364;2024-03-02T05:58:45;6.60;;;6.00;;
12519;SDS011;6325;49.540;8.364;2024-03-02T06:01:22;6.78;;;6.18;;
12519;SDS011;6325;49.540;8.364;2024-03-02T06:03:53;5.93;;;5.43;;
12519;SDS011;6325;49.540;8.364;2024-03-02T06:06:21;6.20;;;5.68;;
12519;SDS011;6325;49.540;8.364;2024-03-02T06:08:48;7.18;;;6.47;;
12519;SDS011;6325;49.540;8.364;2024-03-02T06:11:15;5.75;;;5.25;;
12519;SDS011;6325;49.540;8.364;2024-03-02T06:13:42;6.45;;;5.85;;
12519;SDS011;6325;49.540;8.364;2024-03-02T06:16:08;6.80;;;6.20;;
12519;SDS011;6325;49.540;8.364;2024-03-02T06:18:35;6.22;;;5.70;;
12519;SDS011;6325;49.540;8.364;2024-03-02T06:21:02;6.63;;;6.03;;
12519;SDS011;6325;49.540;8.364;2024-03-02T06:23:30;6.15;;;5.57;;
12519;SDS011;6325;49.540;8.364;2024-03-02T06:25:57;7.25;;;6.55;;
12519;SDS011;6325;49.540;8.364;2024-03-02T06:28:24;6.60;;;6.00;;
12519;SDS011;6325;49.540;8.364;2024-03-02T06:30:51;6.90;;;6.22;;
12519;SDS011;6325;49.540;8.364;2024-03-02T06:33:17;6.43;;;5.80;;
12519;SDS011;6325;49.540;8.364;2024-03-02T06:35:44;6.82;;;6.18;;
12519;SDS011;6325;49.540;8.364;2024-03-02T06:38:11;6.37;;;5.77;;
12519;SDS011;6325;49.540;8.364;2024-03-02T06:40:39;7.07;;;6.40;;
12519;SDS011;6325;49.540;8.364;2024-03-02T06:43:05;6.60;;;6.00;;
12519;SDS011;6325;49.540;8.364;2024-03-02T06:45:32;6.93;;;6.33;;
12519;SDS011;6325;49.540;8.364;2024-03-02T06:47:59;6.95;;;6.22;;
12519;SDS011;6325;49.540;8.364;2024-03-02T06:50:26;6.45;;;5.85;;
12519;SDS011;6325;49.540;8.364;2024-03-02T06:52:53;7.07;;;6.40;;
12519;SDS011;6325;49.540;8.364;2024-03-02T06:55:21;6.50;;;5.90;;
12519;SDS011;6325;49.540;8.364;2024-03-02T06:57:50;6.72;;;6.13;;
12519;SDS011;6325;49.540;8.364;2024-03-02T07:00:18;6.57;;;5.97;;
12519;SDS011;6325;49.540;8.364;2024-03-02T07:02:45;6.82;;;6.13;;
12519;SDS011;6325;49.540;8.364;2024-03-02T07:05:13;6.72;;;6.13;;
12519;SDS011;6325;49.540;8.364;2024-03-02T07:07:39;7.07;;;6.40;;
12519;SDS011;6325;49.540;8.364;2024-03-02T07:10:07;6.68;;;6.07;;
12519;SDS011;6325;49.540;8.364;2024-03-02T07:12:34;6.28;;;5.70;;
12519;SDS011;6325;49.540;8.364;2024-03-02T07:15:02;6.85;;;6.25;;
12519;SDS011;6325;49.540;8.364;2024-03-02T07:18:02;6.80;;;6.20;;
12519;SDS011;6325;49.540;8.364;2024-03-02T07:20:29;6.88;;;6.28;;
12519;SDS011;6325;49.540;8.364;2024-03-02T07:22:55;6.65;;;6.05;;
12519;SDS011;6325;49.540;8.364;2024-03-02T07:25:22;6.75;;;6.15;;
12519;SDS011;6325;49.540;8.364;2024-03-02T07:27:49;6.85;;;6.25;;
12519;SDS011;6325;49.540;8.364;2024-03-02T07:30:19;6.77;;;6.17;;
12519;SDS011;6325;49.540;8.364;2024-03-02T07:32:46;6.22;;;5.65;;
12519;SDS011;6325;49.540;8.364;2024-03-02T07:35:16;6.70;;;6.10;;
12519;SDS011;6325;49.540;8.364;2024-03-02T07:37:43;6.50;;;5.90;;
12519;SDS011;6325;49.540;8.364;2024-03-02T07:40:10;6.65;;;6.05;;
12519;SDS011;6325;49.540;8.364;2024-03-02T07:42:38;6.40;;;5.80;;
12519;SDS011;6325;49.540;8.364;2024-03-02T07:45:05;7.10;;;6.40;;
12519;SDS011;6325;49.540;8.364;2024-03-02T07:47:34;7.03;;;6.33;;
12519;SDS011;6325;49.540;8.364;2024-03-02T07:50:01;6.73;;;6.00;;
12519;SDS011;6325;49.540;8.364;2024-03-02T07:52:28;6.90;;;6.20;;
12519;SDS011;6325;49.540;8.364;2024-03-02T07:54:54;6.82;;;6.22;;
12519;SDS011;6325;49.540;8.364;2024-03-02T07:57:21;7.20;;;6.50;;
12519;SDS011;6325;49.540;8.364;2024-03-02T07:59:48;6.35;;;5.78;;
12519;SDS011;6325;49.540;8.364;2024-03-02T08:02:15;6.30;;;5.75;;
12519;SDS011;6325;49.540;8.364;2024-03-02T08:04:43;6.60;;;6.10;;
12519;SDS011;6325;49.540;8.364;2024-03-02T08:07:11;6.20;;;5.70;;
12519;SDS011;6325;49.540;8.364;2024-03-02T08:09:38;5.88;;;5.43;;
12519;SDS011;6325;49.540;8.364;2024-03-02T08:12:05;6.90;;;6.30;;
12519;SDS011;6325;49.540;8.364;2024-03-02T08:14:31;6.07;;;5.57;;
12519;SDS011;6325;49.540;8.364;2024-03-02T08:16:58;5.70;;;5.20;;
12519;SDS011;6325;49.540;8.364;2024-03-02T08:19:26;6.28;;;5.78;;
12519;SDS011;6325;49.540;8.364;2024-03-02T08:21:54;5.80;;;5.30;;
12519;SDS011;6325;49.540;8.364;2024-03-02T08:24:21;5.43;;;5.03;;
12519;SDS011;6325;49.540;8.364;2024-03-02T08:26:48;6.03;;;5.50;;
12519;SDS011;6325;49.540;8.364;2024-03-02T08:29:15;5.60;;;5.10;;
12519;SDS011;6325;49.540;8.364;2024-03-02T08:31:41;5.38;;;4.88;;
12519;SDS011;6325;49.540;8.364;2024-03-02T08:34:08;5.07;;;4.68;;
12519;SDS011;6325;49.540;8.364;2024-03-02T08:36:35;4.90;;;4.50;;
12519;SDS011;6325;49.540;8.364;2024-03-02T08:39:04;4.97;;;4.57;;
12519;SDS011;6325;49.540;8.364;2024-03-02T08:41:40;4.75;;;4.35;;
12519;SDS011;6325;49.540;8.364;2024-03-02T08:44:07;4.28;;;3.90;;
12519;SDS011;6325;49.540;8.364;2024-03-02T08:46:34;4.50;;;4.10;;
12519;SDS011;6325;49.540;8.364;2024-03-02T08:49:01;4.10;;;3.80;;
12519;SDS011;6325;49.540;8.364;2024-03-02T08:51:27;4.30;;;4.00;;
12519;SDS011;6325;49.540;8.364;2024-03-02T08:53:54;4.20;;;3.90;;
12519;SDS011;6325;49.540;8.364;2024-03-02T08:56:24;4.75;;;4.35;;
12519;SDS011;6325;49.540;8.364;2024-03-02T08:58:51;4.30;;;4.00;;
12519;SDS011;6325;49.540;8.364;2024-03-02T09:01:18;4.05;;;3.75;;
12519;SDS011;6325;49.540;8.364;2024-03-02T09:03:45;4.35;;;4.00;;
12519;SDS011;6325;49.540;8.364;2024-03-02T09:06:13;4.55;;;4.15;;
12519;SDS011;6325;49.540;8.364;2024-03-02T09:08:41;4.30;;;4.00;;
12519;SDS011;6325;49.540;8.364;2024-03-02T09:11:08;4.20;;;3.90;;
12519;SDS011;6325;49.540;8.364;2024-03-02T09:13:38;4.95;;;4.47;;
12519;SDS011;6325;49.540;8.364;2024-03-02T09:16:05;4.37;;;4.07;;
12519;SDS011;6325;49.540;8.364;2024-03-02T09:18:35;4.07;;;3.78;;
12519;SDS011;6325;49.540;8.364;2024-03-02T09:21:02;4.50;;;4.10;;
12519;SDS011;6325;49.540;8.364;2024-03-02T09:23:30;4.40;;;4.00;;
12519;SDS011;6325;49.540;8.364;2024-03-02T09:25:56;4.38;;;4.05;;
12519;SDS011;6325;49.540;8.364;2024-03-02T09:28:23;4.70;;;4.30;;
12519;SDS011;6325;49.540;8.364;2024-03-02T09:30:51;4.60;;;4.20;;
12519;SDS011;6325;49.540;8.364;2024-03-02T09:33:18;4.40;;;4.00;;
12519;SDS011;6325;49.540;8.364;2024-03-02T09:35:47;3.95;;;3.65;;
12519;SDS011;6325;49.540;8.364;2024-03-02T09:38:14;4.95;;;4.10;;
12519;SDS011;6325;49.540;8.364;2024-03-02T09:40:41;3.90;;;3.60;;
12519;SDS011;6325;49.540;8.364;2024-03-02T09:43:08;4.00;;;3.65;;
12519;SDS011;6325;49.540;8.364;2024-03-02T09:45:35;4.10;;;3.80;;
12519;SDS011;6325;49.540;8.364;2024-03-02T09:48:04;3.83;;;3.53;;
12519;SDS011;6325;49.540;8.364;2024-03-02T09:50:31;3.80;;;3.50;;
12519;SDS011;6325;49.540;8.364;2024-03-02T09:52:58;3.38;;;3.17;;
12519;SDS011;6325;49.540;8.364;2024-03-02T09:55:25;2.97;;;2.78;;
12519;SDS011;6325;49.540;8.364;2024-03-02T09:57:53;3.08;;;2.88;;
12519;SDS011;6325;49.540;8.364;2024-03-02T10:00:19;3.30;;;3.10;;
12519;SDS011;6325;49.540;8.364;2024-03-02T10:02:46;2.90;;;2.70;;
12519;SDS011;6325;49.540;8.364;2024-03-02T10:05:22;2.90;;;2.70;;
12519;SDS011;6325;49.540;8.364;2024-03-02T10:07:53;3.17;;;2.97;;
12519;SDS011;6325;49.540;8.364;2024-03-02T10:10:33;3.05;;;2.85;;
12519;SDS011;6325;49.540;8.364;2024-03-02T10:13:05;3.10;;;2.90;;
12519;SDS011;6325;49.540;8.364;2024-03-02T10:15:32;3.33;;;3.13;;
12519;SDS011;6325;49.540;8.364;2024-03-02T10:17:59;3.00;;;2.80;;
12519;SDS011;6325;49.540;8.364;2024-03-02T10:20:27;3.15;;;2.95;;
12519;SDS011;6325;49.540;8.364;2024-03-02T10:22:55;3.10;;;2.90;;
12519;SDS011;6325;49.540;8.364;2024-03-02T10:25:29;3.20;;;3.00;;
12519;SDS011;6325;49.540;8.364;2024-03-02T10:27:57;3.20;;;3.00;;
12519;SDS011;6325;49.540;8.364;2024-03-02T10:30:25;3.33;;;3.13;;
12519;SDS011;6325;49.540;8.364;2024-03-02T10:32:52;3.17;;;2.97;;
12519;SDS011;6325;49.540;8.364;2024-03-02T10:35:20;2.80;;;2.60;;
12519;SDS011;6325;49.540;8.364;2024-03-02T10:37:48;3.38;;;3.08;;
12519;SDS011;6325;49.540;8.364;2024-03-02T10:40:16;3.00;;;2.80;;
12519;SDS011;6325;49.540;8.364;2024-03-02T10:42:43;3.10;;;2.90;;
12519;SDS011;6325;49.540;8.364;2024-03-02T10:45:11;3.03;;;2.83;;
12519;SDS011;6325;49.540;8.364;2024-03-02T10:47:41;3.00;;;2.80;;
12519;SDS011;6325;49.540;8.364;2024-03-02T10:50:09;3.03;;;2.83;;
12519;SDS011;6325;49.540;8.364;2024-03-02T10:52:36;2.90;;;2.70;;
12519;SDS011;6325;49.540;8.364;2024-03-02T10:55:06;2.75;;;2.55;;
12519;SDS011;6325;49.540;8.364;2024-03-02T10:57:40;2.83;;;2.63;;
12519;SDS011;6325;49.540;8.364;2024-03-02T11:00:11;2.90;;;2.70;;
12519;SDS011;6325;49.540;8.364;2024-03-02T11:02:42;3.08;;;2.88;;
12519;SDS011;6325;49.540;8.364;2024-03-02T11:05:13;3.57;;;3.20;;
12519;SDS011;6325;49.540;8.364;2024-03-02T11:07:48;3.17;;;2.97;;
12519;SDS011;6325;49.540;8.364;2024-03-02T11:13:57;2.97;;;2.77;;
12519;SDS011;6325;49.540;8.364;2024-03-02T11:19:43;3.30;;;3.00;;
12519;SDS011;6325;49.540;8.364;2024-03-02T11:22:12;3.22;;;3.03;;
12519;SDS011;6325;49.540;8.364;2024-03-02T11:24:39;3.55;;;3.25;;
12519;SDS011;6325;49.540;8.364;2024-03-02T11:27:14;3.35;;;3.15;;
12519;SDS011;6325;49.540;8.364;2024-03-02T11:30:02;3.20;;;3.00;;
12519;SDS011;6325;49.540;8.364;2024-03-02T11:32:30;2.88;;;2.67;;
12519;SDS011;6325;49.540;8.364;2024-03-02T11:34:57;3.03;;;2.72;;
12519;SDS011;6325;49.540;8.364;2024-03-02T11:37:24;2.78;;;2.58;;
12519;SDS011;6325;49.540;8.364;2024-03-02T11:39:51;2.83;;;2.63;;
12519;SDS011;6325;49.540;8.364;2024-03-02T11:42:18;2.37;;;2.20;;
12519;SDS011;6325;49.540;8.364;2024-03-02T11:44:46;2.30;;;2.20;;
12519;SDS011;6325;49.540;8.364;2024-03-02T11:47:16;2.05;;;1.95;;
12519;SDS011;6325;49.540;8.364;2024-03-02T11:49:44;1.70;;;1.60;;
12519;SDS011;6325;49.540;8.364;2024-03-02T11:52:12;1.40;;;1.40;;
12519;SDS011;6325;49.540;8.364;2024-03-02T11:54:40;1.53;;;1.43;;
12519;SDS011;6325;49.540;8.364;2024-03-02T11:57:11;1.52;;;1.42;;
12519;SDS011;6325;49.540;8.364;2024-03-02T11:59:39;1.50;;;1.40;;
12519;SDS011;6325;49.540;8.364;2024-03-02T12:02:05;1.63;;;1.52;;
12519;SDS011;6325;49.540;8.364;2024-03-02T12:04:34;1.52;;;1.52;;
12519;SDS011;6325;49.540;8.364;2024-03-02T12:07:02;1.00;;;1.00;;
12519;SDS011;6325;49.540;8.364;2024-03-02T12:09:29;1.00;;;1.00;;
12519;SDS011;6325;49.540;8.364;2024-03-02T12:12:03;1.00;;;1.00;;
12519;SDS011;6325;49.540;8.364;2024-03-02T12:14:31;1.00;;;1.00;;
12519;SDS011;6325;49.540;8.364;2024-03-02T12:16:58;1.15;;;1.05;;
12519;SDS011;6325;49.540;8.364;2024-03-02T12:19:25;0.80;;;0.80;;
12519;SDS011;6325;49.540;8.364;2024-03-02T12:21:53;0.80;;;0.80;;
12519;SDS011;6325;49.540;8.364;2024-03-02T12:24:20;0.90;;;0.90;;
12519;SDS011;6325;49.540;8.364;2024-03-02T12:26:46;0.98;;;0.98;;
12519;SDS011;6325;49.540;8.364;2024-03-02T12:29:14;0.90;;;0.90;;
12519;SDS011;6325;49.540;8.364;2024-03-02T12:31:41;1.00;;;1.00;;
12519;SDS011;6325;49.540;8.364;2024-03-02T12:34:10;1.05;;;1.05;;
12519;SDS011;6325;49.540;8.364;2024-03-02T12:36:39;0.90;;;0.90;;
12519;SDS011;6325;49.540;8.364;2024-03-02T12:39:08;1.00;;;1.00;;
12519;SDS011;6325;49.540;8.364;2024-03-02T12:41:35;0.90;;;0.90;;
12519;SDS011;6325;49.540;8.364;2024-03-02T12:44:03;0.90;;;0.90;;
12519;SDS011;6325;49.540;8.364;2024-03-02T12:46:30;1.00;;;1.00;;
12519;SDS011;6325;49.540;8.364;2024-03-02T12:48:57;1.05;;;1.05;;
12519;SDS011;6325;49.540;8.364;2024-03-02T12:51:26;0.90;;;0.90;;
12519;SDS011;6325;49.540;8.364;2024-03-02T12:53:53;0.70;;;0.70;;
12519;SDS011;6325;49.540;8.364;2024-03-02T12:56:22;0.70;;;0.70;;
12519;SDS011;6325;49.540;8.364;2024-03-02T12:58:52;0.75;;;0.75;;
12519;SDS011;6325;49.540;8.364;2024-03-02T13:01:20;0.60;;;0.60;;
12519;SDS011;6325;49.540;8.364;2024-03-02T13:03:49;0.60;;;0.60;;
12519;SDS011;6325;49.540;8.364;2024-03-02T13:06:16;0.68;;;0.68;;
12519;SDS011;6325;49.540;8.364;2024-03-02T13:08:44;0.70;;;0.70;;
12519;SDS011;6325;49.540;8.364;2024-03-02T13:11:11;0.60;;;0.60;;
12519;SDS011;6325;49.540;8.364;2024-03-02T13:13:40;0.60;;;0.60;;
12519;SDS011;6325;49.540;8.364;2024-03-02T13:16:08;0.70;;;0.57;;
12519;SDS011;6325;49.540;8.364;2024-03-02T13:18:35;0.60;;;0.60;;
12519;SDS011;6325;49.540;8.364;2024-03-02T13:21:02;0.40;;;0.40;;
12519;SDS011;6325;49.540;8.364;2024-03-02T13:23:29;0.50;;;0.50;;
12519;SDS011;6325;49.540;8.364;2024-03-02T13:25:56;0.55;;;0.50;;
12519;SDS011;6325;49.540;8.364;2024-03-02T13:28:24;0.45;;;0.45;;
12519;SDS011;6325;49.540;8.364;2024-03-02T13:30:52;0.45;;;0.40;;
12519;SDS011;6325;49.540;8.364;2024-03-02T13:33:19;0.50;;;0.50;;
12519;SDS011;6325;49.540;8.364;2024-03-02T13:35:48;0.97;;;0.60;;
12519;SDS011;6325;49.540;8.364;2024-03-02T13:38:16;0.50;;;0.50;;
12519;SDS011;6325;49.540;8.364;2024-03-02T13:40:43;0.70;;;0.70;;
12519;SDS011;6325;49.540;8.364;2024-03-02T13:43:10;0.80;;;0.80;;
12519;SDS011;6325;49.540;8.364;2024-03-02T13:45:37;0.93;;;0.93;;
12519;SDS011;6325;49.540;8.364;2024-03-02T13:48:06;2.63;;;0.80;;
12519;SDS011;6325;49.540;8.364;2024-03-02T13:50:33;0.70;;;0.70;;
12519;SDS011;6325;49.540;8.364;2024-03-02T13:53:01;1.40;;;0.60;;
12519;SDS011;6325;49.540;8.364;2024-03-02T13:55:28;0.60;;;0.60;;
12519;SDS011;6325;49.540;8.364;2024-03-02T13:57:55;1.20;;;0.70;;
12519;SDS011;6325;49.540;8.364;2024-03-02T14:00:21;0.90;;;0.70;;
12519;SDS011;6325;49.540;8.364;2024-03-02T14:02:48;0.70;;;0.70;;
12519;SDS011;6325;49.540;8.364;2024-03-02T14:05:17;0.90;;;0.90;;
12519;SDS011;6325;49.540;8.364;2024-03-02T14:07:44;0.80;;;0.80;;
12519;SDS011;6325;49.540;8.364;2024-03-02T14:10:11;0.60;;;0.60;;
12519;SDS011;6325;49.540;8.364;2024-03-02T14:12:38;0.70;;;0.70;;
12519;SDS011;6325;49.540;8.364;2024-03-02T14:15:06;0.60;;;0.60;;
12519;SDS011;6325;49.540;8.364;2024-03-02T14:17:33;0.70;;;0.70;;
12519;SDS011;6325;49.540;8.364;2024-03-02T14:20:00;0.60;;;0.60;;
12519;SDS011;6325;49.540;8.364;2024-03-02T14:22:31;0.65;;;0.65;;
12519;SDS011;6325;49.540;8.364;2024-03-02T14:24:59;0.80;;;0.80;;
12519;SDS011;6325;49.540;8.364;2024-03-02T14:27:25;1.20;;;1.10;;
12519;SDS011;6325;49.540;8.364;2024-03-02T14:29:52;0.90;;;0.90;;
12519;SDS011;6325;49.540;8.364;2024-03-02T14:32:19;0.90;;;0.90;;
12519;SDS011;6325;49.540;8.364;2024-03-02T14:34:46;0.90;;;0.90;;
12519;SDS011;6325;49.540;8.364;2024-03-02T14:37:13;0.80;;;0.80;;
12519;SDS011;6325;49.540;8.364;2024-03-02T14:39:42;0.90;;;0.80;;
12519;SDS011;6325;49.540;8.364;2024-03-02T14:42:09;1.08;;;1.08;;
12519;SDS011;6325;49.540;8.364;2024-03-02T14:44:35;1.08;;;1.08;;
12519;SDS011;6325;49.540;8.364;2024-03-02T14:47:02;1.20;;;1.20;;
12519;SDS011;6325;49.540;8.364;2024-03-02T14:49:30;1.50;;;1.50;;
12519;SDS011;6325;49.540;8.364;2024-03-02T14:51:58;1.30;;;1.30;;
12519;SDS011;6325;49.540;8.364;2024-03-02T14:54:25;1.30;;;1.30;;
12519;SDS011;6325;49.540;8.364;2024-03-02T14:56:53;1.70;;;1.60;;
12519;SDS011;6325;49.540;8.364;2024-03-02T14:59:21;1.60;;;1.50;;
12519;SDS011;6325;49.540;8.364;2024-03-02T15:01:48;1.70;;;1.60;;
12519;SDS011;6325;49.540;8.364;2024-03-02T15:04:15;1.33;;;1.30;;
12519;SDS011;6325;49.540;8.364;2024-03-02T15:06:44;1.48;;;1.40;;
12519;SDS011;6325;49.540;8.364;2024-03-02T15:09:10;1.67;;;1.58;;
12519;SDS011;6325;49.540;8.364;2024-03-02T15:11:38;1.60;;;1.50;;